Time;durP1;ratioP1;P1;durP2;ratioP2;P2;SDS_P1;SDS_P2;PMS_P1;PMS_P2;Temp;Humidity;BMP_temperature;BMP_pressure;BME280_temperature;BME280_humidity;BME280_pressure;Samples;Min_cycle;Max_cycle;Signal;HPM_P1;HPM_P2
2021/01/09 00:01:53;;;;;;;4.25;3.42;;;26.20;61.00;;;;;;4964005;28;20319;-53
2021/01/09 00:04:24;;;;;;;4.40;3.35;;;26.10;60.90;;;;;;4964929;28;20229;-56
2021/01/09 00:06:54;;;;;;;4.07;3.00;;;26.20;61.10;;;;;;4961458;28;20236;-52
2021/01/09 00:09:25;;;;;;;4.22;3.00;;;26.10;61.00;;;;;;4956866;28;20264;-55
2021/01/09 00:11:56;;;;;;;4.65;3.17;;;26.10;61.10;;;;;;4966988;28;20234;-52
2021/01/09 00:14:26;;;;;;;4.82;3.25;;;26.10;61.20;;;;;;4963713;28;21385;-50
2021/01/09 00:16:57;;;;;;;3.97;2.97;;;26.10;61.30;;;;;;4966265;28;20256;-52
2021/01/09 00:19:27;;;;;;;4.00;2.88;;;26.10;61.20;;;;;;4968700;28;20653;-54
2021/01/09 00:21:58;;;;;;;5.50;3.85;;;26.10;61.30;;;;;;4966630;28;20247;-52
2021/01/09 00:24:28;;;;;;;4.15;2.97;;;26.10;61.40;;;;;;4968212;28;20232;-51
2021/01/09 00:27:00;;;;;;;4.05;3.30;;;26.10;61.40;;;;;;4970833;28;20568;-49
2021/01/09 00:29:30;;;;;;;4.45;3.10;;;26.10;61.40;;;;;;4968632;28;20232;-51
2021/01/09 00:32:00;;;;;;;4.55;2.80;;;26.10;61.40;;;;;;4972513;28;20695;-51
2021/01/09 00:34:31;;;;;;;8.80;3.50;;;26.10;61.40;;;;;;4965819;28;20355;-55
2021/01/09 00:37:02;;;;;;;3.60;3.10;;;26.10;61.40;;;;;;4962866;28;20237;-50
2021/01/09 00:39:32;;;;;;;5.90;3.42;;;26.10;61.40;;;;;;4967211;28;20232;-50
2021/01/09 00:42:05;;;;;;;5.30;3.50;;;26.20;61.30;;;;;;4968012;28;20316;-51
2021/01/09 00:44:35;;;;;;;3.53;2.88;;;26.20;61.40;;;;;;4968823;28;20236;-51
2021/01/09 00:47:06;;;;;;;4.75;3.38;;;26.20;61.30;;;;;;4986913;28;20244;-51
2021/01/09 00:49:37;;;;;;;4.18;3.17;;;26.20;61.20;;;;;;4974392;28;20240;-50
2021/01/09 00:52:08;;;;;;;3.95;3.30;;;26.20;61.20;;;;;;4967310;28;20228;-56
2021/01/09 00:54:39;;;;;;;4.78;2.97;;;26.30;61.00;;;;;;4970042;28;20233;-51
2021/01/09 00:57:11;;;;;;;5.97;3.30;;;26.30;61.00;;;;;;4964211;28;20224;-52
2021/01/09 00:59:41;;;;;;;5.28;3.35;;;26.30;61.10;;;;;;4964159;28;20233;-49
2021/01/09 01:02:12;;;;;;;3.33;3.03;;;26.30;61.10;;;;;;4969510;28;20232;-50
2021/01/09 01:04:42;;;;;;;7.05;3.45;;;26.40;61.10;;;;;;4964911;28;20229;-50
2021/01/09 01:07:13;;;;;;;4.85;3.38;;;26.40;61.00;;;;;;4961501;28;20675;-50
2021/01/09 01:09:43;;;;;;;6.25;3.40;;;26.40;60.70;;;;;;4964276;28;20240;-53
2021/01/09 01:12:15;;;;;;;4.57;3.50;;;26.50;60.70;;;;;;4971485;28;20237;-51
2021/01/09 01:14:46;;;;;;;4.95;3.38;;;26.50;60.50;;;;;;4962608;28;20236;-56
2021/01/09 01:17:16;;;;;;;3.60;2.85;;;26.50;60.60;;;;;;4963744;28;20684;-54
2021/01/09 01:19:47;;;;;;;4.57;3.25;;;26.60;60.50;;;;;;4962376;28;20701;-56
2021/01/09 01:22:17;;;;;;;5.50;2.95;;;26.60;60.40;;;;;;4963017;28;20709;-55
2021/01/09 01:24:48;;;;;;;4.10;3.03;;;26.70;60.70;;;;;;4974102;28;20757;-51
2021/01/09 01:27:20;;;;;;;6.07;3.83;;;26.70;60.60;;;;;;4960507;28;20240;-54
2021/01/09 01:29:51;;;;;;;6.82;3.70;;;26.80;60.40;;;;;;4966850;28;20225;-56
2021/01/09 01:32:21;;;;;;;5.35;3.30;;;26.80;60.00;;;;;;4961891;28;20236;-53
2021/01/09 01:34:52;;;;;;;4.75;3.60;;;26.90;60.20;;;;;;4962542;28;20715;-51
2021/01/09 01:37:22;;;;;;;4.15;3.28;;;26.90;59.80;;;;;;4963346;28;20598;-54
2021/01/09 01:39:53;;;;;;;5.15;3.47;;;26.90;59.80;;;;;;4965379;28;20232;-56
2021/01/09 01:42:24;;;;;;;6.07;3.30;;;27.00;59.70;;;;;;4958075;28;20332;-51
2021/01/09 01:44:55;;;;;;;5.63;3.25;;;27.00;59.60;;;;;;4962336;28;20239;-55
2021/01/09 01:47:26;;;;;;;3.90;3.17;;;27.10;59.40;;;;;;4967663;28;20592;-53
2021/01/09 01:49:56;;;;;;;3.35;2.80;;;27.10;59.40;;;;;;4976986;28;20235;-53
2021/01/09 01:52:27;;;;;;;5.80;3.50;;;27.20;59.60;;;;;;4962851;28;20253;-54
2021/01/09 01:54:58;;;;;;;3.75;3.15;;;27.20;59.20;;;;;;4967170;28;20240;-50
2021/01/09 01:57:30;;;;;;;7.15;3.45;;;27.30;59.20;;;;;;4968244;28;20666;-55
2021/01/09 02:00:01;;;;;;;4.00;2.92;;;27.30;59.00;;;;;;4987492;28;20245;-52
2021/01/09 02:02:32;;;;;;;3.53;3.20;;;27.30;58.90;;;;;;4960528;28;20256;-53
2021/01/09 02:05:04;;;;;;;4.90;3.17;;;27.40;58.90;;;;;;4962335;28;20684;-52
2021/01/09 02:07:37;;;;;;;8.52;3.60;;;27.50;59.10;;;;;;4965710;28;20320;-55
2021/01/09 02:10:09;;;;;;;4.22;2.80;;;27.50;58.80;;;;;;4966137;28;20281;-53
2021/01/09 02:12:43;;;;;;;5.70;2.70;;;27.60;58.90;;;;;;4965282;28;20232;-51
2021/01/09 02:15:14;;;;;;;7.43;3.47;;;27.60;58.80;;;;;;4959243;28;20232;-55
2021/01/09 02:17:45;;;;;;;4.35;3.20;;;27.70;59.40;;;;;;4968019;28;20243;-53
2021/01/09 02:20:15;;;;;;;4.88;2.97;;;27.70;58.70;;;;;;4976232;28;20312;-55
2021/01/09 02:22:47;;;;;;;6.03;3.72;;;27.80;58.40;;;;;;4936108;28;20273;-52
2021/01/09 02:25:18;;;;;;;4.28;3.17;;;27.90;58.40;;;;;;4939303;28;20288;-53
2021/01/09 02:27:49;;;;;;;5.43;3.33;;;27.90;58.20;;;;;;4917976;28;20252;-52
2021/01/09 02:30:22;;;;;;;4.13;3.30;;;28.00;58.10;;;;;;4920584;28;20238;-51
2021/01/09 02:32:53;;;;;;;3.65;3.28;;;28.10;57.90;;;;;;4923245;28;20756;-53
2021/01/09 02:35:24;;;;;;;4.18;2.95;;;28.10;57.90;;;;;;4917826;28;20268;-53
2021/01/09 02:37:56;;;;;;;3.45;3.15;;;28.20;57.90;;;;;;4940331;28;20733;-50
2021/01/09 02:40:27;;;;;;;6.45;2.92;;;28.30;57.70;;;;;;4916417;28;20384;-51
2021/01/09 02:42:58;;;;;;;4.88;3.35;;;28.30;57.60;;;;;;4940698;28;20237;-56
2021/01/09 02:45:28;;;;;;;4.10;3.00;;;28.40;57.30;;;;;;4932137;28;20233;-55
2021/01/09 02:47:59;;;;;;;3.38;3.08;;;28.50;57.20;;;;;;4936841;28;20238;-55
2021/01/09 02:50:29;;;;;;;5.15;3.05;;;28.50;57.30;;;;;;4919100;28;20714;-54
2021/01/09 02:53:01;;;;;;;3.13;2.83;;;28.60;57.20;;;;;;4931645;28;20271;-53
2021/01/09 02:55:32;;;;;;;4.57;3.25;;;28.60;57.20;;;;;;4962458;28;20685;-50
2021/01/09 02:58:02;;;;;;;6.82;3.10;;;28.70;56.70;;;;;;4972452;28;20317;-51
2021/01/09 03:00:33;;;;;;;3.85;3.35;;;28.80;56.90;;;;;;4963168;28;20290;-55
2021/01/09 03:03:04;;;;;;;4.57;2.95;;;28.80;56.70;;;;;;4993748;28;20293;-53
2021/01/09 03:05:36;;;;;;;6.00;3.05;;;28.90;56.70;;;;;;4982117;28;20703;-54
2021/01/09 03:08:08;;;;;;;3.20;2.72;;;29.00;56.50;;;;;;4958435;28;20244;-56
2021/01/09 03:10:39;;;;;;;3.67;2.75;;;29.00;56.30;;;;;;4958000;28;20236;-51
2021/01/09 03:13:10;;;;;;;4.97;2.92;;;29.10;56.10;;;;;;4961403;28;20245;-53
2021/01/09 03:15:41;;;;;;;6.50;3.47;;;29.20;56.00;;;;;;4958774;28;20232;-56
2021/01/09 03:18:12;;;;;;;4.70;3.20;;;29.20;55.40;;;;;;4962553;28;20221;-53
2021/01/09 03:20:43;;;;;;;4.00;2.92;;;29.30;55.00;;;;;;4957661;28;20229;-53
2021/01/09 03:23:15;;;;;;;4.10;2.40;;;29.40;55.20;;;;;;4973425;28;20344;-53
2021/01/09 03:25:45;;;;;;;3.72;2.70;;;29.40;55.30;;;;;;4969130;28;20309;-55
2021/01/09 03:28:15;;;;;;;6.28;3.53;;;29.50;55.40;;;;;;4957142;28;20286;-50
2021/01/09 03:30:46;;;;;;;3.55;2.97;;;29.50;54.90;;;;;;4955257;28;20234;-54
2021/01/09 03:33:16;;;;;;;4.75;2.90;;;29.60;54.80;;;;;;4950572;28;20236;-51
2021/01/09 03:35:52;;;;;;;5.22;3.00;;;29.70;54.70;;;;;;4952966;28;20311;-56
2021/01/09 03:38:24;;;;;;;7.47;2.97;;;29.70;54.40;;;;;;4952601;28;20224;-52
2021/01/09 03:40:55;;;;;;;7.85;3.22;;;29.70;54.00;;;;;;4957536;28;20241;-56
2021/01/09 03:43:26;;;;;;;4.68;3.00;;;29.80;54.10;;;;;;4959384;28;20320;-52
2021/01/09 03:45:56;;;;;;;2.88;2.63;;;29.80;53.80;;;;;;4959059;28;20704;-52
2021/01/09 03:48:27;;;;;;;3.92;2.80;;;29.90;54.00;;;;;;4960739;28;20238;-53
2021/01/09 03:50:58;;;;;;;3.90;2.72;;;29.90;53.80;;;;;;4963872;28;20240;-55
2021/01/09 03:53:30;;;;;;;4.55;3.17;;;30.00;53.90;;;;;;4959971;28;20236;-55
2021/01/09 03:56:00;;;;;;;5.22;3.63;;;30.00;53.60;;;;;;4966983;28;20323;-53
2021/01/09 03:58:33;;;;;;;7.63;2.63;;;30.10;53.80;;;;;;4972237;28;20237;-54
2021/01/09 04:01:04;;;;;;;5.15;2.75;;;30.10;54.70;;;;;;4959346;28;20236;-52
2021/01/09 04:03:35;;;;;;;3.88;2.72;;;30.20;53.90;;;;;;4990170;28;20331;-55
2021/01/09 04:06:06;;;;;;;5.25;2.80;;;30.30;53.90;;;;;;4965135;28;20240;-51
2021/01/09 04:08:38;;;;;;;6.07;2.97;;;30.30;53.70;;;;;;4966707;28;20230;-53
2021/01/09 04:11:08;;;;;;;3.22;2.50;;;30.40;53.20;;;;;;4970245;28;20319;-52
2021/01/09 04:13:39;;;;;;;4.53;2.80;;;30.50;53.30;;;;;;4961601;28;20760;-56
2021/01/09 04:16:10;;;;;;;3.10;2.80;;;30.60;53.10;;;;;;4961971;28;20324;-55
2021/01/09 04:18:41;;;;;;;4.32;3.13;;;30.60;53.30;;;;;;4966123;28;20236;-54
2021/01/09 04:21:13;;;;;;;6.57;3.03;;;30.70;53.10;;;;;;4958523;28;20225;-53
2021/01/09 04:23:45;;;;;;;4.28;2.80;;;30.80;52.70;;;;;;4960803;28;20264;-55
2021/01/09 04:26:16;;;;;;;6.25;3.00;;;30.80;52.60;;;;;;4960144;28;20261;-55
2021/01/09 04:28:46;;;;;;;5.18;3.63;;;30.90;52.70;;;;;;4975070;28;20236;-54
2021/01/09 04:31:17;;;;;;;3.47;3.17;;;31.00;52.10;;;;;;4963887;28;20248;-51
2021/01/09 04:33:49;;;;;;;6.40;3.38;;;31.10;51.70;;;;;;4956595;28;20316;-54
2021/01/09 04:36:19;;;;;;;3.83;2.90;;;31.10;51.90;;;;;;4963155;28;20236;-50
2021/01/09 04:38:51;;;;;;;3.58;3.15;;;31.20;51.90;;;;;;4962551;28;20233;-54
2021/01/09 04:41:22;;;;;;;4.97;2.60;;;31.20;51.40;;;;;;4955465;28;20229;-52
2021/01/09 04:43:53;;;;;;;4.10;3.10;;;31.30;51.60;;;;;;4960011;28;20299;-52
2021/01/09 04:46:23;;;;;;;5.03;3.30;;;31.30;51.40;;;;;;4966364;28;20258;-53
2021/01/09 04:48:54;;;;;;;2.90;2.70;;;31.40;51.40;;;;;;4925354;28;20756;-53
2021/01/09 04:51:25;;;;;;;3.00;2.78;;;31.50;51.30;;;;;;4930303;28;20644;-56
2021/01/09 04:53:57;;;;;;;4.55;3.20;;;31.50;51.00;;;;;;4920495;28;20939;-51
2021/01/09 04:56:29;;;;;;;4.18;2.95;;;31.60;51.00;;;;;;4925430;29;20685;-55
2021/01/09 04:59:00;;;;;;;8.13;3.30;;;31.60;50.60;;;;;;4925324;28;20759;-53
2021/01/09 05:01:31;;;;;;;6.78;3.10;;;31.70;50.70;;;;;;4871026;28;20240;-52
2021/01/09 05:04:02;;;;;;;5.45;2.67;;;31.80;50.40;;;;;;4868495;28;20251;-51
2021/01/09 05:06:33;;;;;;;4.88;2.75;;;31.80;50.40;;;;;;4869148;28;20338;-52
2021/01/09 05:09:05;;;;;;;4.63;3.10;;;31.80;50.50;;;;;;4890264;28;20244;-52
2021/01/09 05:11:37;;;;;;;6.00;2.83;;;31.90;50.40;;;;;;4870599;28;20232;-53
2021/01/09 05:14:08;;;;;;;7.78;3.05;;;31.90;50.10;;;;;;4868432;28;20233;-50
2021/01/09 05:16:39;;;;;;;5.25;3.15;;;32.00;50.10;;;;;;4870740;28;20229;-50
2021/01/09 05:19:11;;;;;;;5.50;3.40;;;32.10;49.90;;;;;;4884305;28;20242;-54
2021/01/09 05:21:41;;;;;;;3.40;3.10;;;32.10;50.30;;;;;;4927701;28;20240;-52
2021/01/09 05:24:14;;;;;;;10.85;3.58;;;32.20;50.20;;;;;;4868176;28;20742;-56
2021/01/09 05:26:45;;;;;;;4.40;3.13;;;32.20;49.70;;;;;;4869454;28;20240;-54
2021/01/09 05:29:17;;;;;;;5.60;3.63;;;32.30;49.80;;;;;;4870052;28;20600;-53
2021/01/09 05:31:48;;;;;;;3.75;3.42;;;32.40;49.80;;;;;;4871463;29;20247;-56
2021/01/09 05:34:18;;;;;;;4.28;3.83;;;32.40;50.10;;;;;;4910184;28;20243;-54
2021/01/09 05:36:48;;;;;;;4.70;3.83;;;32.40;49.60;;;;;;4892936;28;20244;-52
2021/01/09 05:39:20;;;;;;;4.57;3.72;;;32.50;49.40;;;;;;4916175;28;20402;-52
2021/01/09 05:41:50;;;;;;;3.80;3.50;;;32.60;49.00;;;;;;4913038;28;20239;-56
2021/01/09 05:44:21;;;;;;;6.18;3.65;;;32.60;49.10;;;;;;4875006;29;20330;-55
2021/01/09 05:46:52;;;;;;;3.95;3.45;;;32.70;49.10;;;;;;4866174;29;20287;-53
2021/01/09 05:49:27;;;;;;;5.18;3.75;;;32.80;49.00;;;;;;4878243;29;20587;-50
2021/01/09 05:51:58;;;;;;;7.18;4.95;;;32.90;48.90;;;;;;4845243;29;20319;-52
2021/01/09 05:54:37;;;;;;;7.28;5.00;;;32.90;48.70;;;;;;4829339;29;20256;-54
2021/01/09 05:57:07;;;;;;;7.22;4.38;;;33.00;48.50;;;;;;4889563;29;20269;-54
2021/01/09 05:59:39;;;;;;;8.35;7.45;;;33.00;48.70;;;;;;4887682;29;20242;-52
2021/01/09 06:02:10;;;;;;;8.43;6.85;;;33.10;48.50;;;;;;4887711;29;20271;-53
2021/01/09 06:04:44;;;;;;;6.00;5.40;;;33.20;48.50;;;;;;4837495;29;20240;-56
2021/01/09 06:07:17;;;;;;;7.93;5.28;;;33.20;48.30;;;;;;4797594;29;20255;-52
2021/01/09 06:09:51;;;;;;;6.72;4.78;;;33.30;48.40;;;;;;4780709;29;20290;-51
2021/01/09 06:12:23;;;;;;;5.72;5.10;;;33.40;48.40;;;;;;4785326;29;20262;-53
2021/01/09 06:14:54;;;;;;;6.13;4.50;;;33.40;47.90;;;;;;4790211;29;20242;-53
2021/01/09 06:17:25;;;;;;;5.38;4.47;;;33.50;48.30;;;;;;4750775;30;20240;-50
2021/01/09 06:19:55;;;;;;;6.38;4.88;;;33.60;48.10;;;;;;4784571;29;20272;-55
2021/01/09 06:22:26;;;;;;;5.85;4.53;;;33.60;48.20;;;;;;4837118;29;20239;-52
2021/01/09 06:24:58;;;;;;;5.03;3.95;;;33.70;47.90;;;;;;4871826;29;20322;-52
2021/01/09 06:27:32;;;;;;;8.77;5.95;;;33.80;47.30;;;;;;4920101;29;20288;-50
2021/01/09 06:30:04;;;;;;;8.20;5.60;;;33.80;48.40;;;;;;4941245;29;20241;-50
2021/01/09 06:32:37;;;;;;;5.60;4.88;;;33.80;48.60;;;;;;4977591;28;20255;-50
2021/01/09 06:35:08;;;;;;;7.50;5.32;;;33.80;48.60;;;;;;4987915;28;20235;-50
2021/01/09 06:37:40;;;;;;;7.57;4.93;;;33.80;48.80;;;;;;4988092;28;20253;-52
2021/01/09 06:40:13;;;;;;;8.13;5.78;;;33.80;48.70;;;;;;4902939;29;20273;-51
2021/01/09 06:42:44;;;;;;;7.40;5.28;;;33.80;48.90;;;;;;4978114;28;20231;-54
2021/01/09 06:45:15;;;;;;;7.40;5.70;;;33.70;48.90;;;;;;4986713;28;20319;-54
2021/01/09 06:47:57;;;;;;;7.00;5.45;;;33.70;48.90;;;;;;4923718;29;20234;-52
2021/01/09 06:50:34;;;;;;;7.25;5.30;;;33.60;49.00;;;;;;4873755;29;20231;-50
2021/01/09 06:53:05;;;;;;;8.40;5.63;;;33.60;49.40;;;;;;4871433;29;20747;-55
2021/01/09 06:55:57;;;;;;;8.23;5.57;;;33.60;49.50;;;;;;4873590;29;20235;-51
2021/01/09 06:58:29;;;;;;;6.28;5.68;;;33.60;49.50;;;;;;4872036;29;20243;-50
2021/01/09 07:01:21;;;;;;;7.68;5.80;;;33.60;49.50;;;;;;4873702;29;20242;-50
2021/01/09 07:03:52;;;;;;;8.23;6.40;;;33.60;49.80;;;;;;4869172;29;20701;-50
2021/01/09 07:06:58;;;;;;;10.85;6.30;;;33.50;49.80;;;;;;4873245;29;20227;-50
2021/01/09 07:09:30;;;;;;;9.57;6.05;;;33.40;49.80;;;;;;4853306;29;20691;-52
2021/01/09 07:12:02;;;;;;;8.32;6.28;;;33.40;49.50;;;;;;4959861;28;20689;-53
2021/01/09 07:14:36;;;;;;;8.15;6.20;;;33.40;49.80;;;;;;4928689;29;20785;-50
2021/01/09 07:17:11;;;;;;;7.55;5.72;;;33.30;49.80;;;;;;4860408;29;20323;-53
2021/01/09 07:19:42;;;;;;;8.32;5.32;;;33.40;50.00;;;;;;4834304;29;20240;-50
2021/01/09 07:22:12;;;;;;;6.95;5.80;;;33.30;50.00;;;;;;4889853;29;20239;-52
2021/01/09 07:24:43;;;;;;;7.45;5.32;;;33.30;49.70;;;;;;4834939;29;20253;-50
2021/01/09 07:27:15;;;;;;;6.60;5.00;;;33.30;49.70;;;;;;4838695;29;20248;-51
2021/01/09 07:29:45;;;;;;;9.25;5.30;;;33.30;49.80;;;;;;4836230;29;20225;-51
2021/01/09 07:32:18;;;;;;;7.03;5.63;;;33.30;49.80;;;;;;4837223;29;20241;-53
2021/01/09 07:34:48;;;;;;;6.55;4.75;;;33.20;49.50;;;;;;4838283;29;20245;-55
2021/01/09 07:37:19;;;;;;;6.78;5.10;;;33.20;49.70;;;;;;4803689;29;20250;-51
2021/01/09 07:39:59;;;;;;;6.60;4.90;;;33.20;49.70;;;;;;4801588;29;20257;-52
2021/01/09 07:42:34;;;;;;;6.50;5.05;;;33.20;49.80;;;;;;4801180;29;20620;-54
2021/01/09 07:45:07;;;;;;;5.57;4.90;;;33.20;50.00;;;;;;4799681;29;20241;-51
2021/01/09 07:47:42;;;;;;;5.28;4.28;;;33.20;50.30;;;;;;4839582;29;20832;-51
2021/01/09 07:50:15;;;;;;;6.97;4.53;;;33.20;50.80;;;;;;4959828;28;20305;-54
2021/01/09 07:52:46;;;;;;;8.65;4.65;;;33.20;50.70;;;;;;5001561;28;20231;-53
2021/01/09 07:55:17;;;;;;;6.30;4.32;;;33.20;51.10;;;;;;5005924;28;20246;-54
2021/01/09 07:57:49;;;;;;;8.30;4.78;;;33.30;51.20;;;;;;5004500;28;20746;-51
2021/01/09 08:00:19;;;;;;;5.07;4.13;;;33.20;51.10;;;;;;5041890;28;20244;-52
2021/01/09 08:02:50;;;;;;;5.00;4.25;;;33.30;51.00;;;;;;5044843;28;20241;-53
2021/01/09 08:05:21;;;;;;;10.23;4.57;;;33.30;50.80;;;;;;5032847;28;20807;-54
2021/01/09 08:07:53;;;;;;;4.45;4.05;;;33.30;50.80;;;;;;5008670;28;20290;-56
2021/01/09 08:10:25;;;;;;;4.65;3.85;;;33.30;50.50;;;;;;4968343;28;21000;-54
2021/01/09 08:12:58;;;;;;;8.15;4.93;;;33.30;50.70;;;;;;4965903;28;20237;-53
2021/01/09 08:15:30;;;;;;;6.22;4.47;;;33.40;50.80;;;;;;4969460;28;20704;-53
2021/01/09 08:18:01;;;;;;;8.57;4.50;;;33.40;50.90;;;;;;4970327;28;20590;-52
2021/01/09 08:20:32;;;;;;;6.72;4.88;;;33.50;50.40;;;;;;4968730;28;20261;-64
2021/01/09 08:23:03;;;;;;;6.95;5.20;;;33.50;50.80;;;;;;4968802;28;20271;-51
2021/01/09 08:25:33;;;;;;;8.23;4.80;;;33.50;50.60;;;;;;4964438;28;20590;-52
2021/01/09 08:28:06;;;;;;;9.35;5.22;;;33.50;50.60;;;;;;4965546;28;20241;-52
2021/01/09 08:30:36;;;;;;;10.98;5.18;;;33.50;50.70;;;;;;4957814;28;20300;-51
2021/01/09 08:33:08;;;;;;;7.90;5.50;;;33.60;50.70;;;;;;4968934;28;20248;-50
2021/01/09 08:35:40;;;;;;;5.60;4.90;;;33.60;50.50;;;;;;4968070;28;20235;-54
2021/01/09 08:38:10;;;;;;;8.25;4.53;;;33.60;50.50;;;;;;4963597;28;20229;-52
2021/01/09 08:40:42;;;;;;;6.75;4.95;;;33.60;50.50;;;;;;4965168;28;20240;-49
2021/01/09 08:43:14;;;;;;;5.88;4.80;;;33.60;50.70;;;;;;4969503;28;20656;-49
2021/01/09 08:45:46;;;;;;;6.65;5.20;;;33.60;50.70;;;;;;4967714;28;20268;-53
2021/01/09 08:48:19;;;;;;;8.07;5.75;;;33.60;50.50;;;;;;4967539;28;20719;-50
2021/01/09 08:51:07;;;;;;;9.15;4.88;;;33.70;50.20;;;;;;4963187;28;20276;-51
2021/01/09 08:53:43;;;;;;;6.70;4.60;;;33.70;49.60;;;;;;4968628;28;20319;-52
2021/01/09 08:56:14;;;;;;;7.45;5.80;;;33.70;50.70;;;;;;4965654;28;20244;-51
2021/01/09 08:58:45;;;;;;;7.38;4.80;;;33.70;50.00;;;;;;5028115;28;20226;-50
2021/01/09 09:01:16;;;;;;;8.02;6.50;;;33.70;50.40;;;;;;5026149;28;20716;-49
2021/01/09 09:03:49;;;;;;;9.45;5.90;;;33.70;50.40;;;;;;5025135;28;20231;-50
2021/01/09 09:06:22;;;;;;;9.57;7.53;;;33.70;50.40;;;;;;5026179;28;20595;-51
2021/01/09 09:08:53;;;;;;;8.80;6.88;;;33.70;50.70;;;;;;4961925;28;20831;-49
2021/01/09 09:11:26;;;;;;;8.85;6.30;;;33.70;50.80;;;;;;4904587;29;20238;-50
2021/01/09 09:14:07;;;;;;;10.70;5.43;;;33.80;51.10;;;;;;4908146;29;20242;-52
2021/01/09 09:16:41;;;;;;;5.57;4.63;;;33.80;51.20;;;;;;4912773;29;20234;-50
2021/01/09 09:19:15;;;;;;;9.52;6.13;;;33.80;51.00;;;;;;4907410;29;20243;-50
2021/01/09 09:21:45;;;;;;;9.50;5.78;;;33.80;51.10;;;;;;4910191;29;20329;-51
2021/01/09 09:24:18;;;;;;;8.15;5.18;;;33.80;51.10;;;;;;4874752;28;20286;-52
2021/01/09 09:26:48;;;;;;;6.88;5.15;;;33.80;51.00;;;;;;4872076;29;20243;-50
2021/01/09 09:29:20;;;;;;;79.57;72.45;;;33.90;51.20;;;;;;4872521;28;20340;-53
2021/01/09 09:31:51;;;;;;;7.60;5.13;;;33.90;51.40;;;;;;4871816;28;20258;-51
2021/01/09 09:34:28;;;;;;;7.03;5.20;;;33.90;51.60;;;;;;4870672;28;20766;-56
2021/01/09 09:37:02;;;;;;;8.80;5.35;;;33.90;51.70;;;;;;4867177;29;20239;-51
2021/01/09 09:39:36;;;;;;;9.50;5.90;;;33.90;52.00;;;;;;4888826;28;21117;-51
2021/01/09 09:42:06;;;;;;;6.43;5.70;;;34.00;51.70;;;;;;4943169;28;20253;-55
2021/01/09 09:44:39;;;;;;;11.85;5.40;;;34.00;51.50;;;;;;4966611;28;20229;-50
2021/01/09 09:47:10;;;;;;;8.38;5.20;;;34.00;51.30;;;;;;4964593;28;21155;-50
2021/01/09 09:49:44;;;;;;;8.00;4.95;;;34.10;51.30;;;;;;4958817;28;20298;-50
2021/01/09 09:52:18;;;;;;;7.57;6.10;;;34.10;51.50;;;;;;4969353;28;20236;-50
2021/01/09 09:54:49;;;;;;;6.32;5.22;;;34.10;51.40;;;;;;4967914;28;20660;-49
2021/01/09 09:57:23;;;;;;;7.72;5.70;;;34.10;51.40;;;;;;4967145;28;20232;-50
2021/01/09 10:00:11;;;;;;;6.38;5.47;;;34.10;51.30;;;;;;4961416;28;20228;-49
2021/01/09 10:02:54;;;;;;;7.35;5.32;;;34.10;51.50;;;;;;4962136;28;20614;-53
2021/01/09 10:05:25;;;;;;;7.88;5.53;;;34.10;51.60;;;;;;4968846;28;20251;-50
2021/01/09 10:08:13;;;;;;;8.07;5.78;;;34.10;51.50;;;;;;4968949;28;20332;-53
2021/01/09 10:10:43;;;;;;;6.20;5.55;;;34.10;51.50;;;;;;4964908;28;20229;-52
2021/01/09 10:13:14;;;;;;;6.40;5.45;;;34.10;49.70;;;;;;4964902;28;20236;-51
2021/01/09 10:15:46;;;;;;;8.95;5.82;;;34.10;48.80;;;;;;4944569;29;20253;-54
2021/01/09 10:18:18;;;;;;;10.13;5.30;;;34.10;48.20;;;;;;4889647;28;20239;-50
2021/01/09 10:20:48;;;;;;;7.70;5.30;;;34.10;48.00;;;;;;4886679;28;20700;-52
2021/01/09 10:23:19;;;;;;;8.85;5.50;;;34.10;47.40;;;;;;4886292;28;20941;-50
2021/01/09 10:25:49;;;;;;;9.77;5.55;;;34.20;47.40;;;;;;4904634;28;20235;-51
2021/01/09 10:28:20;;;;;;;7.65;5.35;;;34.30;47.40;;;;;;4885189;28;20247;-52
2021/01/09 10:30:51;;;;;;;7.85;7.05;;;34.50;47.20;;;;;;4887852;28;20691;-52
2021/01/09 10:33:22;;;;;;;10.95;7.57;;;34.60;46.70;;;;;;4890289;28;20239;-53
2021/01/09 10:35:52;;;;;;;7.38;6.28;;;34.70;46.20;;;;;;4886770;28;20581;-52
2021/01/09 10:38:23;;;;;;;8.85;6.05;;;34.70;45.90;;;;;;4889409;28;20233;-50
2021/01/09 10:40:54;;;;;;;8.45;6.03;;;34.80;45.50;;;;;;4884575;28;20327;-53
2021/01/09 10:43:24;;;;;;;8.00;5.90;;;34.80;45.30;;;;;;4886330;28;20230;-52
2021/01/09 10:45:56;;;;;;;8.18;5.80;;;34.70;45.30;;;;;;4894626;28;20612;-49
2021/01/09 10:48:27;;;;;;;8.45;6.25;;;34.60;45.40;;;;;;4933556;28;20613;-53
2021/01/09 10:50:57;;;;;;;6.43;5.57;;;34.50;45.50;;;;;;4959032;28;20252;-50
2021/01/09 10:53:29;;;;;;;7.55;5.85;;;34.40;45.80;;;;;;4963273;28;20275;-50
2021/01/09 10:55:59;;;;;;;10.02;6.68;;;34.30;45.90;;;;;;4968146;28;20232;-50
2021/01/09 10:58:30;;;;;;;8.27;6.60;;;34.10;46.00;;;;;;4965677;28;20267;-52
2021/01/09 11:01:02;;;;;;;7.65;6.95;;;34.00;46.10;;;;;;4965402;28;20253;-49
2021/01/09 11:03:33;;;;;;;8.45;7.65;;;33.90;46.20;;;;;;4964165;28;20702;-52
2021/01/09 11:06:07;;;;;;;8.63;7.63;;;33.80;46.40;;;;;;4965691;28;20789;-50
2021/01/09 11:08:38;;;;;;;10.65;9.23;;;33.70;46.60;;;;;;4967418;28;20247;-50
2021/01/09 11:11:09;;;;;;;11.77;8.98;;;33.50;46.70;;;;;;4965633;28;20708;-51
2021/01/09 11:13:40;;;;;;;10.95;9.38;;;33.50;47.00;;;;;;4958559;28;20263;-52
2021/01/09 11:16:12;;;;;;;11.23;9.63;;;33.40;47.30;;;;;;4962974;28;20224;-49
2021/01/09 11:18:43;;;;;;;11.15;9.98;;;33.30;47.60;;;;;;4964330;28;20550;-50
2021/01/09 11:21:14;;;;;;;9.13;7.88;;;33.20;47.70;;;;;;4965871;28;20225;-52
2021/01/09 11:23:45;;;;;;;7.15;6.20;;;33.10;47.80;;;;;;4958246;28;20267;-52
2021/01/09 11:26:21;;;;;;;7.10;6.00;;;33.00;47.90;;;;;;4963592;28;20320;-52
2021/01/09 11:28:52;;;;;;;7.35;5.40;;;33.00;48.20;;;;;;4956639;28;20301;-49
2021/01/09 11:31:24;;;;;;;5.68;5.15;;;32.90;48.60;;;;;;4966917;28;20294;-53
2021/01/09 11:33:55;;;;;;;6.57;5.63;;;32.80;48.80;;;;;;4966395;28;20232;-51
2021/01/09 11:36:25;;;;;;;5.95;5.35;;;32.80;49.30;;;;;;4962065;28;20312;-51
2021/01/09 11:38:55;;;;;;;7.28;5.57;;;32.80;49.40;;;;;;4964735;28;20236;-52
2021/01/09 11:41:26;;;;;;;7.40;5.78;;;32.70;49.60;;;;;;4971928;28;20244;-50
2021/01/09 11:43:56;;;;;;;7.05;5.38;;;32.60;49.50;;;;;;4966838;28;20302;-51
2021/01/09 11:46:32;;;;;;;7.18;6.25;;;32.50;49.40;;;;;;4966494;28;20247;-53
2021/01/09 11:49:03;;;;;;;10.18;5.85;;;32.50;49.10;;;;;;4962112;28;20311;-49
2021/01/09 11:51:33;;;;;;;9.02;6.45;;;32.40;49.10;;;;;;4965712;28;20241;-50
2021/01/09 11:54:04;;;;;;;6.15;5.53;;;32.40;48.90;;;;;;4966875;28;20286;-55
2021/01/09 11:56:37;;;;;;;9.45;5.00;;;32.30;48.90;;;;;;4967381;28;20264;-55
2021/01/09 11:59:07;;;;;;;6.63;4.45;;;32.20;48.80;;;;;;4964989;28;20723;-55
2021/01/09 12:01:39;;;;;;;5.50;4.72;;;32.20;48.80;;;;;;4966544;28;20243;-53
2021/01/09 12:04:10;;;;;;;6.88;4.70;;;32.10;49.10;;;;;;4967773;28;20279;-52
2021/01/09 12:06:41;;;;;;;5.97;4.20;;;32.00;49.00;;;;;;4965135;28;20702;-56
2021/01/09 12:09:12;;;;;;;4.80;4.30;;;32.00;49.10;;;;;;4966902;28;20290;-50
2021/01/09 12:11:42;;;;;;;5.93;4.35;;;31.90;49.10;;;;;;4970794;28;20232;-50
2021/01/09 12:14:15;;;;;;;6.15;4.18;;;31.80;49.20;;;;;;4969794;28;20305;-50
2021/01/09 12:16:46;;;;;;;6.30;4.40;;;31.80;49.30;;;;;;4988403;28;20233;-50
2021/01/09 12:19:17;;;;;;;6.35;4.85;;;31.70;49.50;;;;;;4968228;28;20224;-52
2021/01/09 12:21:53;;;;;;;7.18;4.80;;;31.70;49.40;;;;;;4969515;28;20605;-50
2021/01/09 12:24:25;;;;;;;7.07;4.70;;;31.60;49.40;;;;;;4969158;28;20319;-52
2021/01/09 12:26:56;;;;;;;5.00;4.50;;;31.60;49.40;;;;;;4969102;28;20243;-55
2021/01/09 12:29:27;;;;;;;5.68;5.07;;;31.50;49.50;;;;;;4981771;28;20239;-52
2021/01/09 12:31:58;;;;;;;6.10;4.88;;;31.50;49.70;;;;;;4966882;28;20315;-49
2021/01/09 12:34:29;;;;;;;6.38;5.30;;;31.40;49.70;;;;;;4974440;28;20225;-51
2021/01/09 12:36:59;;;;;;;6.55;4.88;;;31.40;49.70;;;;;;4969920;28;20674;-50
2021/01/09 12:39:30;;;;;;;7.47;5.35;;;31.40;49.90;;;;;;4969471;28;20228;-51
2021/01/09 12:42:01;;;;;;;5.95;5.30;;;31.30;49.90;;;;;;4965789;28;20236;-52
2021/01/09 12:44:31;;;;;;;5.35;4.85;;;31.30;50.00;;;;;;4963999;28;20733;-58
2021/01/09 12:47:04;;;;;;;5.55;4.82;;;31.20;50.00;;;;;;4963909;28;20267;-54
2021/01/09 12:49:34;;;;;;;6.78;5.10;;;31.20;50.20;;;;;;4962788;28;20236;-52
2021/01/09 12:52:05;;;;;;;5.85;4.75;;;31.10;50.30;;;;;;4958996;28;21347;-55
2021/01/09 12:54:35;;;;;;;6.75;4.85;;;31.10;50.40;;;;;;4966845;28;20240;-50
2021/01/09 12:57:06;;;;;;;5.22;4.72;;;31.10;50.60;;;;;;4959612;28;20705;-51
2021/01/09 12:59:37;;;;;;;5.95;4.68;;;31.00;50.50;;;;;;4966338;28;20723;-52
2021/01/09 13:02:08;;;;;;;5.53;4.07;;;31.00;50.50;;;;;;4969150;28;20239;-53
2021/01/09 13:04:39;;;;;;;4.95;4.45;;;31.00;50.70;;;;;;4968995;28;20699;-50
2021/01/09 13:07:10;;;;;;;6.40;4.68;;;30.90;50.60;;;;;;4967370;28;20650;-49
2021/01/09 13:09:40;;;;;;;11.10;4.18;;;30.90;50.70;;;;;;4965358;28;20238;-49